Time;durP1;ratioP1;P1;durP2;ratioP2;P2;SDS_P1;SDS_P2;PMS_P1;PMS_P2;Temp;Humidity;BMP_temperature;BMP_pressure;BME280_temperature;BME280_humidity;BME280_pressure;Samples;Min_cycle;Max_cycle;Signal;HPM_P1;HPM_P2
2024/01/30 00:01:52;;;;;;;25.73;15.60;;;4.00;99.90;;;;;;5013981;28;20600;-69
2024/01/30 00:04:18;;;;;;;27.52;16.08;;;4.00;99.90;;;;;;5014003;28;20030;-69
2024/01/30 00:06:44;;;;;;;23.20;15.00;;;3.90;99.90;;;;;;5013584;28;20037;-69
2024/01/30 00:09:11;;;;;;;29.90;17.15;;;3.90;99.90;;;;;;5013682;28;20476;-69
2024/01/30 00:11:37;;;;;;;27.05;17.13;;;3.90;99.90;;;;;;5013353;28;20476;-69
2024/01/30 00:14:03;;;;;;;28.63;16.98;;;3.90;99.90;;;;;;5013891;28;20124;-69
2024/01/30 00:16:29;;;;;;;25.58;16.25;;;4.40;99.90;;;;;;5013798;28;20025;-69
2024/01/30 00:18:55;;;;;;;24.60;16.25;;;3.50;99.90;;;;;;5013498;28;20029;-69
2024/01/30 00:21:20;;;;;;;33.20;18.25;;;3.90;99.90;;;;;;5013676;28;20042;-69
2024/01/30 00:23:46;;;;;;;26.20;16.88;;;3.80;99.90;;;;;;5013270;28;20032;-69
2024/01/30 00:26:14;;;;;;;31.77;17.80;;;3.70;99.90;;;;;;5013671;28;20092;-69
2024/01/30 00:28:40;;;;;;;32.05;17.85;;;3.90;99.90;;;;;;5013594;28;20069;-69
2024/01/30 00:31:06;;;;;;;29.05;17.80;;;3.70;99.90;;;;;;5013173;28;20479;-69
2024/01/30 00:33:31;;;;;;;31.55;18.67;;;4.10;99.90;;;;;;5013352;28;20088;-69
2024/01/30 00:35:57;;;;;;;27.83;17.58;;;4.10;99.90;;;;;;5013621;28;20037;-69
2024/01/30 00:38:22;;;;;;;30.80;17.55;;;4.20;99.90;;;;;;5013016;28;20021;-69
2024/01/30 00:40:48;;;;;;;33.72;19.05;;;4.00;99.90;;;;;;5013057;28;20030;-69
2024/01/30 00:43:14;;;;;;;33.38;18.38;;;4.40;99.90;;;;;;5012924;28;20030;-69
2024/01/30 00:45:40;;;;;;;33.83;18.65;;;4.40;99.90;;;;;;5012772;28;20037;-69
2024/01/30 00:48:06;;;;;;;35.47;19.25;;;4.40;99.90;;;;;;5013485;28;20388;-69
2024/01/30 00:50:31;;;;;;;30.92;19.15;;;4.70;99.90;;;;;;5013418;28;20173;-69
2024/01/30 00:52:57;;;;;;;30.77;18.35;;;4.80;99.90;;;;;;5012941;28;20221;-69
2024/01/30 00:55:22;;;;;;;31.02;18.60;;;4.70;99.90;;;;;;5013351;28;20034;-69
2024/01/30 00:57:48;;;;;;;29.45;18.05;;;4.50;99.90;;;;;;5013275;28;20030;-69
2024/01/30 01:00:16;;;;;;;28.88;17.42;;;4.80;99.90;;;;;;5013239;28;20072;-69
2024/01/30 01:02:42;;;;;;;32.75;19.65;;;4.70;99.90;;;;;;5013318;28;20395;-69
2024/01/30 01:05:08;;;;;;;28.92;17.15;;;4.80;99.90;;;;;;5013231;28;20026;-69
2024/01/30 01:07:33;;;;;;;29.13;17.15;;;4.60;99.90;;;;;;5012842;28;20080;-69
2024/01/30 01:09:59;;;;;;;29.30;17.90;;;4.60;99.90;;;;;;5012882;28;20512;-69
2024/01/30 01:12:25;;;;;;;27.48;16.40;;;4.50;99.90;;;;;;5013063;28;20021;-69
2024/01/30 01:14:50;;;;;;;32.22;17.02;;;4.50;99.90;;;;;;5013132;28;20476;-69
2024/01/30 01:17:16;;;;;;;32.97;18.20;;;4.60;99.90;;;;;;5013051;28;20045;-69
2024/01/30 01:19:41;;;;;;;34.50;20.25;;;4.80;99.90;;;;;;5013036;28;20026;-69
2024/01/30 01:22:07;;;;;;;31.75;18.90;;;4.90;99.90;;;;;;5015521;28;20480;-69
2024/01/30 01:24:32;;;;;;;31.80;18.27;;;5.00;99.90;;;;;;5016916;28;20107;-69
2024/01/30 01:26:59;;;;;;;36.20;19.50;;;5.10;99.90;;;;;;5016858;28;20042;-69
2024/01/30 01:29:28;;;;;;;31.75;19.35;;;5.10;99.90;;;;;;5016799;28;20072;-69
2024/01/30 01:31:55;;;;;;;33.17;19.25;;;5.20;99.90;;;;;;5016715;28;20037;-69
2024/01/30 01:34:21;;;;;;;29.65;17.92;;;5.20;99.90;;;;;;5016224;28;20029;-69
2024/01/30 01:36:46;;;;;;;30.83;18.75;;;4.90;99.90;;;;;;5016574;28;20029;-69
2024/01/30 01:39:12;;;;;;;30.48;18.23;;;5.10;99.90;;;;;;5016483;28;20503;-69
2024/01/30 01:41:37;;;;;;;27.58;17.77;;;5.20;99.90;;;;;;5016515;28;20033;-69
2024/01/30 01:44:03;;;;;;;27.90;17.50;;;4.90;99.90;;;;;;5016213;28;20100;-69
2024/01/30 01:46:32;;;;;;;28.05;17.05;;;4.80;99.90;;;;;;5016090;28;20029;-68
2024/01/30 01:48:58;;;;;;;28.17;17.17;;;4.80;99.90;;;;;;5016442;28;20018;-69
2024/01/30 01:51:26;;;;;;;28.88;16.92;;;4.80;99.90;;;;;;5016398;28;20033;-69
2024/01/30 01:53:54;;;;;;;29.65;17.83;;;4.60;99.90;;;;;;5016150;28;20041;-69
2024/01/30 01:56:19;;;;;;;27.13;17.13;;;4.50;99.90;;;;;;5016275;28;20437;-69
2024/01/30 01:58:47;;;;;;;34.65;17.83;;;4.50;99.90;;;;;;5016186;28;20060;-69
2024/01/30 02:01:14;;;;;;;32.58;17.58;;;4.40;99.90;;;;;;5016210;28;20061;-69
2024/01/30 02:03:40;;;;;;;34.42;19.02;;;4.40;99.90;;;;;;5016139;28;20121;-69
2024/01/30 02:06:06;;;;;;;28.92;16.95;;;4.40;99.90;;;;;;5015970;28;20480;-69
2024/01/30 02:08:33;;;;;;;29.60;17.50;;;4.40;99.90;;;;;;5015667;28;20036;-69
2024/01/30 02:10:59;;;;;;;28.88;17.15;;;4.40;99.90;;;;;;5015945;28;20554;-68
2024/01/30 02:13:25;;;;;;;29.15;17.20;;;4.40;99.90;;;;;;5015529;28;20026;-69
2024/01/30 02:15:51;;;;;;;29.30;17.23;;;4.30;99.90;;;;;;5015810;28;20034;-68
2024/01/30 02:18:17;;;;;;;30.27;17.80;;;4.20;99.90;;;;;;5015741;28;20156;-68
2024/01/30 02:20:43;;;;;;;29.05;16.73;;;4.20;99.90;;;;;;5015657;28;20542;-69
2024/01/30 02:23:12;;;;;;;25.90;17.02;;;4.20;99.90;;;;;;5015799;28;20083;-68
2024/01/30 02:25:47;;;;;;;28.30;17.35;;;4.10;99.90;;;;;;5015352;28;20500;-68
2024/01/30 02:28:13;;;;;;;28.05;17.63;;;4.10;99.90;;;;;;5015299;28;20530;-68
2024/01/30 02:30:40;;;;;;;32.17;18.50;;;4.10;99.90;;;;;;5015313;28;20030;-69
2024/01/30 02:33:05;;;;;;;26.63;16.63;;;4.00;99.90;;;;;;5014943;28;20026;-69
2024/01/30 02:35:31;;;;;;;27.27;16.92;;;4.00;99.90;;;;;;5015468;28;20029;-68
2024/01/30 02:37:56;;;;;;;30.77;18.60;;;3.90;99.90;;;;;;5015254;28;20084;-69
2024/01/30 02:40:22;;;;;;;30.48;18.60;;;4.00;99.90;;;;;;5015015;28;20041;-69
2024/01/30 02:42:48;;;;;;;29.88;17.77;;;4.00;99.90;;;;;;5014961;28;20040;-68
2024/01/30 02:45:13;;;;;;;34.80;20.08;;;4.10;99.90;;;;;;5014616;28;20049;-68
2024/01/30 02:47:39;;;;;;;38.53;19.27;;;4.20;99.90;;;;;;5014790;28;20108;-69
2024/01/30 02:50:05;;;;;;;34.97;18.92;;;4.20;99.90;;;;;;5014945;28;20034;-68
2024/01/30 02:52:31;;;;;;;36.83;19.88;;;4.20;99.90;;;;;;5015068;28;20030;-68
2024/01/30 02:54:56;;;;;;;35.15;20.10;;;4.30;99.90;;;;;;5015257;28;20048;-68
2024/01/30 02:57:22;;;;;;;37.15;20.88;;;4.40;99.90;;;;;;5015208;28;20036;-68
2024/01/30 02:59:47;;;;;;;36.72;21.40;;;4.50;99.90;;;;;;5015096;28;20103;-68
2024/01/30 03:02:13;;;;;;;36.63;20.90;;;4.60;99.90;;;;;;5015141;28;20077;-68
2024/01/30 03:04:41;;;;;;;32.75;19.05;;;4.70;99.90;;;;;;5015053;28;20040;-68
2024/01/30 03:07:07;;;;;;;34.83;20.08;;;4.60;99.90;;;;;;5014934;28;20047;-68
2024/01/30 03:09:32;;;;;;;39.92;20.83;;;4.60;99.90;;;;;;5014561;28;20112;-68
2024/01/30 03:11:58;;;;;;;36.72;20.00;;;4.60;99.90;;;;;;5014828;28;20040;-68
2024/01/30 03:14:23;;;;;;;33.97;19.67;;;4.60;99.90;;;;;;5014627;28;20028;-68
2024/01/30 03:16:49;;;;;;;35.53;21.25;;;4.60;99.90;;;;;;5014834;28;20026;-69
2024/01/30 03:19:14;;;;;;;43.10;20.77;;;4.70;99.90;;;;;;5014325;28;20026;-69
2024/01/30 03:21:40;;;;;;;41.10;22.83;;;4.70;99.90;;;;;;5014700;28;20030;-68
2024/01/30 03:24:06;;;;;;;33.33;20.45;;;4.80;99.90;;;;;;5014772;28;20095;-69
2024/01/30 03:26:31;;;;;;;34.85;20.55;;;4.70;99.90;;;;;;5014482;28;20026;-69
2024/01/30 03:28:57;;;;;;;35.22;20.10;;;4.70;99.90;;;;;;5014413;28;20022;-69
2024/01/30 03:31:22;;;;;;;30.60;19.83;;;4.60;99.90;;;;;;5014524;28;20034;-69
2024/01/30 03:33:48;;;;;;;33.97;19.95;;;4.60;99.90;;;;;;5014205;28;20033;-69
2024/01/30 03:36:15;;;;;;;33.60;19.67;;;4.70;99.90;;;;;;5014471;28;20484;-68
2024/01/30 03:38:40;;;;;;;28.70;18.60;;;4.60;99.90;;;;;;5013954;28;20116;-69
2024/01/30 03:41:09;;;;;;;34.72;19.20;;;4.60;99.90;;;;;;5014341;28;20073;-68
2024/01/30 03:43:35;;;;;;;37.60;20.17;;;4.50;99.90;;;;;;5013650;28;20056;-69
2024/01/30 03:46:01;;;;;;;33.50;19.23;;;4.40;99.90;;;;;;5013916;28;20030;-68
2024/01/30 03:48:27;;;;;;;34.67;19.23;;;4.40;99.90;;;;;;5014303;28;20539;-68
2024/01/30 03:50:52;;;;;;;31.65;19.17;;;4.30;99.90;;;;;;5014228;28;20125;-69
2024/01/30 03:53:18;;;;;;;32.03;18.65;;;4.30;99.90;;;;;;5013970;28;20034;-68
2024/01/30 03:55:44;;;;;;;34.72;19.88;;;4.30;99.90;;;;;;5014287;28;20052;-68
2024/01/30 03:58:09;;;;;;;31.25;18.90;;;4.30;99.90;;;;;;5014160;28;20034;-68
2024/01/30 04:00:35;;;;;;;35.35;19.73;;;4.30;99.90;;;;;;5013989;28;20032;-68
2024/01/30 04:03:00;;;;;;;28.92;18.38;;;4.30;99.90;;;;;;5013870;28;20373;-69
2024/01/30 04:05:26;;;;;;;29.50;18.85;;;4.40;99.90;;;;;;5013873;28;20116;-69
2024/01/30 04:07:51;;;;;;;30.45;18.55;;;4.30;99.90;;;;;;5013866;28;20065;-68
2024/01/30 04:10:17;;;;;;;35.13;20.00;;;4.40;99.90;;;;;;5013800;28;20033;-68
2024/01/30 04:12:42;;;;;;;34.83;20.25;;;4.40;99.90;;;;;;5013382;28;20037;-69
2024/01/30 04:15:08;;;;;;;37.22;20.17;;;4.50;99.90;;;;;;5013861;28;20108;-68
2024/01/30 04:17:34;;;;;;;33.25;18.67;;;4.40;99.90;;;;;;5013907;28;20117;-68
2024/01/30 04:19:59;;;;;;;32.10;18.75;;;4.50;99.90;;;;;;5013798;28;20117;-68
2024/01/30 04:22:25;;;;;;;31.20;18.23;;;4.50;99.90;;;;;;5013684;28;20395;-69
2024/01/30 04:24:50;;;;;;;29.92;18.27;;;4.50;99.90;;;;;;5013751;28;20167;-69
2024/01/30 04:27:16;;;;;;;35.53;19.35;;;4.40;99.90;;;;;;5013634;28;20152;-69
2024/01/30 04:29:41;;;;;;;30.83;18.05;;;4.10;99.90;;;;;;5013515;28;20034;-68
2024/01/30 04:32:07;;;;;;;30.88;18.23;;;4.40;99.90;;;;;;5013552;28;20034;-68
2024/01/30 04:34:33;;;;;;;26.73;16.38;;;4.30;99.90;;;;;;5013409;28;20049;-69
2024/01/30 04:36:58;;;;;;;28.38;17.42;;;4.40;99.90;;;;;;5013716;28;20141;-68
2024/01/30 04:39:24;;;;;;;31.10;17.02;;;4.40;99.90;;;;;;5013387;28;20022;-68
2024/01/30 04:41:49;;;;;;;31.55;18.83;;;4.40;99.90;;;;;;5013515;28;20113;-69
2024/01/30 04:44:15;;;;;;;30.35;16.95;;;4.30;99.90;;;;;;5013183;28;20045;-68
2024/01/30 04:46:40;;;;;;;34.92;19.00;;;4.30;99.90;;;;;;5013537;28;20042;-68
2024/01/30 04:49:07;;;;;;;33.38;19.05;;;4.30;99.90;;;;;;5013479;28;20030;-69
2024/01/30 04:51:33;;;;;;;30.88;18.42;;;4.30;99.90;;;;;;5013103;28;20069;-69
2024/01/30 04:53:58;;;;;;;34.97;19.90;;;4.40;99.90;;;;;;5013506;28;20065;-69
2024/01/30 04:56:24;;;;;;;31.52;18.08;;;4.40;99.90;;;;;;5014695;28;20132;-69
2024/01/30 04:58:50;;;;;;;34.95;17.95;;;4.40;99.90;;;;;;5017436;28;20036;-68
2024/01/30 05:01:16;;;;;;;35.13;19.75;;;4.30;99.90;;;;;;5017286;28;20022;-68
2024/01/30 05:03:41;;;;;;;30.50;18.63;;;4.30;99.90;;;;;;5016927;28;20026;-69
2024/01/30 05:06:07;;;;;;;31.40;18.58;;;4.10;99.90;;;;;;5032584;28;20112;-69
2024/01/30 05:08:32;;;;;;;31.88;18.60;;;4.10;99.90;;;;;;5016817;28;20025;-69
2024/01/30 05:11:01;;;;;;;31.33;19.55;;;4.20;99.90;;;;;;5017312;28;20034;-68
2024/01/30 05:13:27;;;;;;;33.65;20.67;;;4.40;99.90;;;;;;5016808;28;20030;-68
2024/01/30 05:15:52;;;;;;;36.38;19.80;;;4.00;99.90;;;;;;5017036;28;20508;-69
2024/01/30 05:18:18;;;;;;;36.53;19.25;;;4.60;99.90;;;;;;5017102;28;20384;-68
2024/01/30 05:20:43;;;;;;;39.05;20.08;;;4.70;99.90;;;;;;5017107;28;20033;-68
2024/01/30 05:23:09;;;;;;;37.13;19.98;;;4.90;99.90;;;;;;5016903;28;20443;-69
2024/01/30 05:25:34;;;;;;;36.92;20.52;;;4.90;99.90;;;;;;5016892;28;20034;-69
2024/01/30 05:28:00;;;;;;;33.75;19.30;;;4.90;99.90;;;;;;5016604;28;20112;-69
2024/01/30 05:30:25;;;;;;;35.15;20.33;;;4.80;99.90;;;;;;5016759;28;20449;-68
2024/01/30 05:32:52;;;;;;;38.70;20.70;;;4.80;99.90;;;;;;5016354;28;20033;-69
2024/01/30 05:35:18;;;;;;;29.60;18.45;;;4.80;99.90;;;;;;5016649;28;20037;-69
2024/01/30 05:37:43;;;;;;;32.85;20.00;;;4.90;99.90;;;;;;5016510;28;20026;-69
2024/01/30 05:40:09;;;;;;;34.75;19.63;;;4.90;99.90;;;;;;5016676;28;20033;-68
2024/01/30 05:42:35;;;;;;;36.63;19.20;;;4.80;99.90;;;;;;5016252;28;20057;-68
2024/01/30 05:45:00;;;;;;;33.40;19.20;;;4.60;99.90;;;;;;5016383;28;20089;-68
2024/01/30 05:47:26;;;;;;;29.67;18.20;;;4.50;99.90;;;;;;5016086;28;20121;-69
2024/01/30 05:49:51;;;;;;;31.65;18.90;;;4.50;99.90;;;;;;5016341;28;20034;-69
2024/01/30 05:52:18;;;;;;;33.80;18.98;;;4.60;99.90;;;;;;5016313;28;20037;-68
2024/01/30 05:54:44;;;;;;;38.22;19.83;;;4.70;99.90;;;;;;5016364;28;20365;-68
2024/01/30 05:57:10;;;;;;;41.63;19.33;;;4.80;99.90;;;;;;5016461;28;20036;-68
2024/01/30 05:59:36;;;;;;;35.97;19.30;;;4.90;99.90;;;;;;5016331;28;20030;-68
2024/01/30 06:02:01;;;;;;;36.25;20.48;;;4.90;99.90;;;;;;5016321;28;20022;-68
2024/01/30 06:04:27;;;;;;;39.83;19.25;;;5.00;99.90;;;;;;5016250;28;20092;-68
2024/01/30 06:06:52;;;;;;;37.63;20.75;;;4.90;99.90;;;;;;5015245;28;20037;-69
2024/01/30 06:09:18;;;;;;;33.70;19.60;;;5.00;99.90;;;;;;5016050;28;20113;-69
2024/01/30 06:11:43;;;;;;;36.13;19.50;;;5.10;99.90;;;;;;5015989;28;20033;-69
2024/01/30 06:14:09;;;;;;;31.88;18.20;;;5.20;99.90;;;;;;5015908;28;20068;-69
2024/01/30 06:16:35;;;;;;;33.15;17.50;;;5.10;99.90;;;;;;5016079;28;20040;-68
2024/01/30 06:19:00;;;;;;;32.38;18.65;;;5.10;99.90;;;;;;5015973;28;20480;-69
2024/01/30 06:21:26;;;;;;;33.53;18.60;;;5.10;99.90;;;;;;5015812;28;20172;-68
2024/01/30 06:23:51;;;;;;;30.38;17.05;;;5.10;99.90;;;;;;5015627;28;20061;-68
2024/01/30 06:26:17;;;;;;;34.15;18.00;;;5.00;99.90;;;;;;5015818;28;20549;-68
2024/01/30 06:28:42;;;;;;;35.80;17.48;;;4.90;99.90;;;;;;5015791;28;20159;-68
2024/01/30 06:31:08;;;;;;;27.33;17.40;;;4.80;99.90;;;;;;5015312;28;20029;-68
2024/01/30 06:33:33;;;;;;;34.53;18.45;;;4.80;99.90;;;;;;5015512;28;20403;-68
2024/01/30 06:35:58;;;;;;;32.17;18.27;;;4.80;99.90;;;;;;5015721;28;20033;-68
2024/01/30 06:38:24;;;;;;;31.60;17.60;;;4.90;99.90;;;;;;5015369;28;20049;-68
2024/01/30 06:40:49;;;;;;;30.92;17.50;;;5.00;99.90;;;;;;5015291;28;20029;-68
2024/01/30 06:43:15;;;;;;;32.10;17.73;;;5.00;99.90;;;;;;5015202;28;20037;-69
2024/01/30 06:45:42;;;;;;;41.53;19.30;;;5.00;99.90;;;;;;5015133;28;20025;-69
2024/01/30 06:48:08;;;;;;;30.27;17.33;;;5.00;99.90;;;;;;5015309;28;20034;-68
2024/01/30 06:50:33;;;;;;;41.83;22.85;;;5.00;99.90;;;;;;5015282;28;20203;-69
2024/01/30 06:52:59;;;;;;;33.40;18.80;;;4.90;99.90;;;;;;5015241;28;20076;-69
2024/01/30 06:55:24;;;;;;;34.78;19.60;;;4.90;99.90;;;;;;5015162;28;20040;-68
2024/01/30 06:57:50;;;;;;;32.78;18.35;;;4.90;99.90;;;;;;5015134;28;20030;-69
2024/01/30 07:00:16;;;;;;;35.67;18.90;;;4.90;99.90;;;;;;5014964;28;20033;-68
2024/01/30 07:02:42;;;;;;;34.30;19.33;;;5.00;99.90;;;;;;5015015;28;20029;-69
2024/01/30 07:05:07;;;;;;;32.25;19.10;;;4.90;99.90;;;;;;5014671;28;20368;-69
2024/01/30 07:07:33;;;;;;;30.73;18.23;;;4.80;99.90;;;;;;5014787;28;20033;-69
2024/01/30 07:09:59;;;;;;;30.98;17.67;;;4.00;99.90;;;;;;5014240;28;20049;-69
2024/01/30 07:12:25;;;;;;;36.05;19.20;;;4.70;99.90;;;;;;5014543;28;20034;-68
2024/01/30 07:14:51;;;;;;;35.50;18.77;;;4.60;99.90;;;;;;5016861;28;20022;-68
2024/01/30 07:17:17;;;;;;;34.88;17.85;;;4.60;99.90;;;;;;5020162;28;20040;-68
2024/01/30 07:19:42;;;;;;;27.02;17.13;;;4.70;99.90;;;;;;5029697;28;20057;-68
2024/01/30 07:22:08;;;;;;;33.22;18.67;;;4.70;99.90;;;;;;5014282;28;20033;-69
2024/01/30 07:24:34;;;;;;;43.78;24.10;;;4.70;99.90;;;;;;5014688;28;20488;-69
2024/01/30 07:26:59;;;;;;;38.97;20.27;;;4.80;99.90;;;;;;5014648;28;20030;-69
2024/01/30 07:29:25;;;;;;;34.75;19.83;;;4.70;99.90;;;;;;5014530;28;20392;-69
2024/01/30 07:31:50;;;;;;;33.42;19.60;;;4.80;99.90;;;;;;5013898;28;20037;-68
2024/01/30 07:34:16;;;;;;;32.63;18.85;;;4.80;99.90;;;;;;5018168;28;20118;-69
2024/01/30 07:36:42;;;;;;;41.70;19.30;;;4.80;99.90;;;;;;5014232;28;20036;-69
2024/01/30 07:39:07;;;;;;;30.80;18.10;;;4.70;99.90;;;;;;5014206;28;20459;-69
2024/01/30 07:41:33;;;;;;;29.50;18.17;;;4.80;99.90;;;;;;5014392;28;20029;-69
2024/01/30 07:43:58;;;;;;;34.17;19.55;;;4.90;99.90;;;;;;5013470;28;20054;-69
2024/01/30 07:46:24;;;;;;;29.58;18.15;;;5.00;99.90;;;;;;5013733;28;20026;-69
2024/01/30 07:48:49;;;;;;;39.63;20.33;;;5.10;99.90;;;;;;5014152;28;20041;-69
2024/01/30 07:51:15;;;;;;;40.25;20.55;;;5.20;99.90;;;;;;5013000;28;20033;-68
2024/01/30 07:53:41;;;;;;;34.40;19.75;;;5.40;99.90;;;;;;5009363;28;20103;-69
2024/01/30 07:56:07;;;;;;;31.25;19.02;;;5.50;99.90;;;;;;5013927;28;20026;-69
2024/01/30 07:58:32;;;;;;;27.77;16.95;;;5.60;99.90;;;;;;5013460;28;20049;-69
2024/01/30 08:00:58;;;;;;;34.90;20.50;;;5.70;99.90;;;;;;5013510;28;20018;-69
2024/01/30 08:03:24;;;;;;;30.60;19.15;;;5.90;99.90;;;;;;5013165;28;20037;-69
2024/01/30 08:05:49;;;;;;;32.30;17.73;;;6.00;99.90;;;;;;5013330;28;20057;-69
2024/01/30 08:08:15;;;;;;;29.45;17.77;;;6.10;99.90;;;;;;5013914;28;20091;-69
2024/01/30 08:10:40;;;;;;;38.45;22.25;;;6.20;99.90;;;;;;5014075;28;20026;-70
2024/01/30 08:13:08;;;;;;;32.03;19.98;;;6.30;99.90;;;;;;5013632;28;20480;-69
2024/01/30 08:15:33;;;;;;;29.30;18.20;;;6.40;99.90;;;;;;5013341;28;20022;-69
2024/01/30 08:17:59;;;;;;;31.70;18.90;;;6.50;99.90;;;;;;5013741;28;20084;-69
2024/01/30 08:20:25;;;;;;;33.03;20.35;;;6.70;99.90;;;;;;5013255;28;20062;-69
2024/01/30 08:22:51;;;;;;;32.28;19.83;;;6.70;99.90;;;;;;5013507;28;20033;-69
2024/01/30 08:25:17;;;;;;;28.27;18.05;;;6.90;99.90;;;;;;5013130;28;20022;-69
2024/01/30 08:27:42;;;;;;;38.53;21.92;;;7.10;99.90;;;;;;5013586;28;20034;-69
2024/01/30 08:30:09;;;;;;;35.22;20.73;;;7.20;99.90;;;;;;5018514;28;20041;-69
2024/01/30 08:32:34;;;;;;;31.35;19.75;;;7.30;99.90;;;;;;5014084;28;20030;-69
2024/01/30 08:35:03;;;;;;;33.60;19.42;;;7.50;99.90;;;;;;5015419;28;20045;-69
2024/01/30 08:37:30;;;;;;;29.92;19.27;;;7.60;99.90;;;;;;5016087;28;20024;-68
2024/01/30 08:39:56;;;;;;;28.17;17.73;;;7.90;99.90;;;;;;5012099;28;20506;-69
2024/01/30 08:42:22;;;;;;;34.58;19.77;;;8.00;99.90;;;;;;5011963;28;20022;-69
2024/01/30 08:44:49;;;;;;;28.05;17.10;;;8.20;99.90;;;;;;5012825;28;20504;-69
2024/01/30 08:47:16;;;;;;;24.63;15.18;;;;;;;;;;5016516;28;20022;-69
2024/01/30 08:49:44;;;;;;;28.52;18.48;;;;;;;;;;5015210;28;20018;-69
2024/01/30 08:52:10;;;;;;;29.75;18.60;;;;;;;;;;5011831;28;20041;-69
2024/01/30 08:54:36;;;;;;;27.02;18.45;;;;;;;;;;5011878;28;20029;-70
2024/01/30 08:57:02;;;;;;;25.02;16.95;;;9.40;99.90;;;;;;5011740;28;20029;-69
2024/01/30 08:59:28;;;;;;;24.35;14.48;;;9.30;99.90;;;;;;5012057;28;20076;-69
2024/01/30 09:01:55;;;;;;;20.98;13.75;;;9.90;99.90;;;;;;5013060;28;20034;-69
2024/01/30 09:04:21;;;;;;;23.40;15.02;;;9.70;99.90;;;;;;5012827;28;20053;-71
2024/01/30 09:06:47;;;;;;;23.13;14.55;;;9.50;99.90;;;;;;5013162;28;20401;-71
2024/01/30 09:09:14;;;;;;;24.15;14.30;;;9.40;99.90;;;;;;5012775;28;20034;-69
2024/01/30 09:11:40;;;;;;;25.98;14.32;;;9.30;99.90;;;;;;5014199;28;20116;-69
2024/01/30 09:14:05;;;;;;;23.02;14.63;;;9.40;99.90;;;;;;5012314;28;20391;-69
2024/01/30 09:16:31;;;;;;;23.63;14.23;;;9.40;99.90;;;;;;5012115;28;20038;-69
2024/01/30 09:18:56;;;;;;;19.33;12.95;;;9.40;99.90;;;;;;5012990;28;20022;-70
2024/01/30 09:21:22;;;;;;;21.35;14.05;;;9.40;99.90;;;;;;5013445;28;20026;-69
2024/01/30 09:23:48;;;;;;;24.10;13.93;;;9.40;99.90;;;;;;5012141;28;20426;-69
2024/01/30 09:26:14;;;;;;;22.85;13.18;;;9.50;99.90;;;;;;5013644;28;20026;-70
2024/01/30 09:28:39;;;;;;;27.15;14.30;;;9.50;99.90;;;;;;5013016;28;20041;-69
2024/01/30 09:31:10;;;;;;;23.67;13.93;;;9.70;99.90;;;;;;5001445;28;20030;-69
2024/01/30 09:33:36;;;;;;;23.55;16.45;;;10.00;99.90;;;;;;5003091;28;20027;-69
2024/01/30 09:36:01;;;;;;;23.70;16.15;;;10.10;99.90;;;;;;5015342;28;20049;-70
2024/01/30 09:38:27;;;;;;;21.98;14.43;;;10.30;99.90;;;;;;5015743;28;20032;-70
2024/01/30 09:40:56;;;;;;;22.02;12.95;;;10.60;99.90;;;;;;5011964;28;20107;-70
2024/01/30 09:43:23;;;;;;;21.00;14.07;;;10.60;99.90;;;;;;5020763;28;20068;-69
2024/01/30 09:45:51;;;;;;;25.08;15.63;;;10.60;99.90;;;;;;5025602;28;20029;-70
2024/01/30 09:48:16;;;;;;;23.38;15.05;;;10.60;92.80;;;;;;5016357;28;20025;-70
2024/01/30 09:50:42;;;;;;;26.48;19.45;;;10.50;99.90;;;;;;5016336;28;20028;-70
2024/01/30 09:53:08;;;;;;;37.55;23.88;;;10.50;99.90;;;;;;5016095;28;20066;-70
2024/01/30 09:55:36;;;;;;;37.28;27.58;;;10.50;93.80;;;;;;5016296;28;20018;-70
2024/01/30 09:58:01;;;;;;;34.63;23.50;;;10.50;82.20;;;;;;5016132;28;20037;-70
2024/01/30 10:00:27;;;;;;;25.60;15.80;;;10.30;63.40;;;;;;5016436;28;20030;-70
2024/01/30 10:02:53;;;;;;;19.48;14.65;;;10.20;78.40;;;;;;5015995;28;20033;-70
2024/01/30 10:05:20;;;;;;;22.25;14.38;;;10.10;95.60;;;;;;5016115;28;20121;-70
2024/01/30 10:07:54;;;;;;;24.50;14.50;;;10.10;98.10;;;;;;5015988;28;20021;-70
2024/01/30 10:10:22;;;;;;;22.95;15.07;;;10.30;99.30;;;;;;5016027;28;20030;-70
2024/01/30 10:12:48;;;;;;;24.95;14.07;;;10.30;93.40;;;;;;5015645;28;20033;-69
2024/01/30 10:15:14;;;;;;;20.42;12.43;;;10.50;90.40;;;;;;5015808;28;20480;-70
2024/01/30 10:17:40;;;;;;;24.48;12.45;;;10.50;90.70;;;;;;5016025;28;20033;-70
2024/01/30 10:20:07;;;;;;;19.08;11.43;;;10.60;95.20;;;;;;5015938;28;20543;-70
2024/01/30 10:22:33;;;;;;;18.55;11.65;;;10.70;89.30;;;;;;5015512;28;20504;-71
2024/01/30 10:24:59;;;;;;;26.52;12.10;;;10.70;91.80;;;;;;5015145;28;20033;-71
2024/01/30 10:27:27;;;;;;;19.35;11.20;;;10.90;81.40;;;;;;5015126;28;20510;-71
2024/01/30 10:29:53;;;;;;;19.50;10.80;;;11.00;76.40;;;;;;5015057;28;20037;-71
2024/01/30 10:32:20;;;;;;;18.48;10.68;;;11.00;66.60;;;;;;5015106;28;20038;-71
2024/01/30 10:34:45;;;;;;;18.00;10.52;;;11.00;65.00;;;;;;5014621;28;20076;-72
2024/01/30 10:37:15;;;;;;;15.07;9.43;;;10.90;74.20;;;;;;5015376;28;20026;-71
2024/01/30 10:39:41;;;;;;;20.75;10.63;;;11.00;71.80;;;;;;5014796;28;20361;-70
2024/01/30 10:42:11;;;;;;;15.05;9.93;;;11.00;79.10;;;;;;5015367;28;20034;-71
2024/01/30 10:44:52;;;;;;;18.40;10.60;;;11.00;72.50;;;;;;5014625;28;20365;-71
2024/01/30 10:47:25;;;;;;;14.55;9.82;;;11.10;64.80;;;;;;5015377;28;20060;-71
2024/01/30 10:49:52;;;;;;;19.02;9.35;;;11.20;52.50;;;;;;5015189;28;20503;-71
2024/01/30 10:52:18;;;;;;;17.38;10.50;;;11.30;41.40;;;;;;5014384;28;20030;-71
2024/01/30 10:54:44;;;;;;;19.63;10.18;;;11.40;32.20;;;;;;5015177;28;20503;-71
2024/01/30 10:57:11;;;;;;;15.20;9.43;;;11.40;20.90;;;;;;5014755;28;20022;-71
2024/01/30 10:59:37;;;;;;;13.32;8.68;;;11.50;10.50;;;;;;5014654;28;20052;-71
2024/01/30 11:02:03;;;;;;;13.05;8.50;;;11.60;2.00;;;;;;5014819;28;20117;-70
2024/01/30 11:04:37;;;;;;;11.05;8.73;;;11.60;1.00;;;;;;5014712;28;20029;-71
2024/01/30 11:07:14;;;;;;;14.43;8.50;;;11.60;1.00;;;;;;5014579;28;20038;-70
2024/01/30 11:09:41;;;;;;;14.27;7.88;;;11.70;1.00;;;;;;5014676;28;20036;-71
2024/01/30 11:12:12;;;;;;;18.23;8.50;;;11.80;1.00;;;;;;5015390;28;20484;-71
2024/01/30 11:14:40;;;;;;;22.08;9.05;;;11.80;1.00;;;;;;5014696;28;20030;-71
2024/01/30 11:17:07;;;;;;;18.42;9.15;;;;;;;;;;5014603;28;20028;-71
2024/01/30 11:19:36;;;;;;;13.35;8.05;;;;;;;;;;5014842;28;20030;-71
2024/01/30 11:22:04;;;;;;;19.38;8.25;;;;;;;;;;5014405;28;20369;-71
2024/01/30 11:24:33;;;;;;;19.15;8.60;;;;;;;;;;5014654;28;20032;-71
2024/01/30 11:27:02;;;;;;;16.48;8.45;;;12.50;1.00;;;;;;5014123;28;20104;-72
2024/01/30 11:29:30;;;;;;;17.02;8.85;;;12.50;1.00;;;;;;5014513;28;20083;-71
2024/01/30 11:31:58;;;;;;;13.93;8.55;;;12.60;1.00;;;;;;5013638;28;20508;-70
2024/01/30 11:34:26;;;;;;;15.70;8.77;;;;;;;;;;5014268;28;20576;-71
2024/01/30 11:37:03;;;;;;;13.50;8.35;;;12.80;1.00;;;;;;5014210;28;20084;-70
2024/01/30 11:39:31;;;;;;;13.93;8.18;;;;;;;;;;5014289;28;20026;-71
2024/01/30 11:42:01;;;;;;;16.90;8.68;;;13.00;99.90;;;;;;5013825;28;20030;-70
2024/01/30 11:44:28;;;;;;;14.13;8.63;;;13.30;99.90;;;;;;5014059;28;20523;-71
2024/01/30 11:46:56;;;;;;;17.85;8.68;;;13.40;99.90;;;;;;5014085;28;20041;-71
2024/01/30 11:49:23;;;;;;;13.65;7.43;;;;;;;;;;5013841;28;20030;-71
2024/01/30 11:51:51;;;;;;;14.55;8.38;;;;;;;;;;5014016;28;20077;-71
2024/01/30 11:54:17;;;;;;;14.05;7.45;;;13.80;99.90;;;;;;5013731;28;20057;-71
2024/01/30 11:56:43;;;;;;;15.18;7.13;;;14.10;99.90;;;;;;5014079;28;20034;-71
2024/01/30 11:59:09;;;;;;;13.00;7.32;;;14.20;99.90;;;;;;5014188;28;20056;-71
2024/01/30 12:01:34;;;;;;;13.77;6.93;;;14.40;1.00;;;;;;5013348;28;20018;-71
2024/01/30 12:04:00;;;;;;;12.40;7.25;;;;;;;;;;5014045;28;20542;-71
2024/01/30 12:06:28;;;;;;;13.40;7.50;;;;;;;;;;5013468;28;20070;-71
2024/01/30 12:09:00;;;;;;;13.00;7.82;;;14.30;1.00;;;;;;5013866;28;20034;-71
2024/01/30 12:11:29;;;;;;;11.75;6.93;;;;;;;;;;5013727;28;20036;-71
2024/01/30 12:13:56;;;;;;;18.77;7.38;;;;;;;;;;5013617;28;20044;-72
2024/01/30 12:16:22;;;;;;;15.48;7.20;;;14.00;99.90;;;;;;5013167;28;20088;-70
2024/01/30 12:18:48;;;;;;;22.30;7.60;;;13.80;1.00;;;;;;5013627;28;20468;-71
2024/01/30 12:21:18;;;;;;;15.15;7.70;;;13.60;99.90;;;;;;5013429;28;20030;-70
2024/01/30 12:23:44;;;;;;;17.05;8.00;;;13.80;99.90;;;;;;5013781;28;20048;-71
2024/01/30 12:26:10;;;;;;;20.67;8.93;;;13.60;99.90;;;;;;5013718;28;20472;-71
2024/01/30 12:28:36;;;;;;;16.10;7.57;;;;;;;;;;5013081;28;20113;-71
2024/01/30 12:31:03;;;;;;;20.80;7.90;;;;;;;;;;5013280;28;20084;-72
2024/01/30 12:33:30;;;;;;;16.70;7.78;;;;;;;;;;5013146;28;20061;-71
2024/01/30 12:35:57;;;;;;;19.48;7.72;;;;;;;;;;5013041;28;20034;-71
2024/01/30 12:38:24;;;;;;;18.70;8.73;;;;;;;;;;5012866;28;20026;-71